createdAt,value
2024-03-16T00:00:09.342Z,19.60
2024-03-16T00:02:37.759Z,23.53
2024-03-16T00:05:05.623Z,19.83
2024-03-16T00:07:32.956Z,19.10
2024-03-16T00:10:00.717Z,17.73
2024-03-16T00:12:28.292Z,17.00
2024-03-16T00:14:57.131Z,18.60
2024-03-16T00:17:25.017Z,18.35
2024-03-16T00:19:52.675Z,15.83
2024-03-16T00:22:20.225Z,13.50
2024-03-16T00:24:48.054Z,12.43
2024-03-16T00:27:15.502Z,10.90
2024-03-16T00:29:42.817Z,12.33
2024-03-16T00:32:10.472Z,11.70
2024-03-16T00:34:37.813Z,11.17
2024-03-16T00:37:06.017Z,10.93
2024-03-16T00:39:33.997Z,13.60
2024-03-16T00:42:02.382Z,14.50
2024-03-16T00:44:29.838Z,14.13
2024-03-16T00:46:57.464Z,14.90
2024-03-16T00:49:25.688Z,14.23
2024-03-16T00:51:53.095Z,26.17
2024-03-16T00:54:20.802Z,21.07
2024-03-16T00:56:49.146Z,19.37
2024-03-16T00:59:16.628Z,19.00
2024-03-16T01:01:44.641Z,19.00
2024-03-16T01:04:12.487Z,20.67
2024-03-16T01:06:39.807Z,25.43
2024-03-16T01:09:07.788Z,18.77
2024-03-16T01:11:35.297Z,24.07
2024-03-16T01:14:02.732Z,22.03
2024-03-16T01:16:30.394Z,20.33
2024-03-16T01:18:57.879Z,21.63
2024-03-16T01:21:25.413Z,16.93
2024-03-16T01:23:53.117Z,16.77
2024-03-16T01:26:20.480Z,16.70
2024-03-16T01:28:48.523Z,17.53
2024-03-16T01:31:16.290Z,19.93
2024-03-16T01:33:43.884Z,18.93
2024-03-16T01:36:11.352Z,18.70
2024-03-16T01:38:39.010Z,19.90
2024-03-16T01:41:06.664Z,19.63
2024-03-16T01:43:34.173Z,39.27
2024-03-16T01:46:02.232Z,31.70
2024-03-16T01:48:29.628Z,23.43
2024-03-16T01:50:57.282Z,22.03
2024-03-16T01:53:24.955Z,21.70
2024-03-16T01:55:53.004Z,21.67
2024-03-16T01:58:21.066Z,21.15
2024-03-16T02:00:49.333Z,19.90
2024-03-16T02:03:17.336Z,18.10
2024-03-16T02:05:47.604Z,19.17
2024-03-16T02:08:17.244Z,21.00
2024-03-16T02:10:45.004Z,24.10
2024-03-16T02:13:12.920Z,22.43
2024-03-16T02:15:40.412Z,23.97
2024-03-16T02:18:11.302Z,22.43
2024-03-16T02:20:39.136Z,22.60
2024-03-16T02:23:06.394Z,20.87
2024-03-16T02:25:34.042Z,23.63
2024-03-16T02:28:01.430Z,25.73
2024-03-16T02:30:28.805Z,23.50
2024-03-16T02:32:56.667Z,26.77
2024-03-16T02:35:24.606Z,22.60
2024-03-16T02:37:51.928Z,19.33
2024-03-16T02:40:19.586Z,17.37
2024-03-16T02:42:46.965Z,17.33
2024-03-16T02:45:14.402Z,23.20
2024-03-16T02:47:42.046Z,22.20
2024-03-16T02:50:11.710Z,19.13
2024-03-16T02:52:39.099Z,22.43
2024-03-16T02:55:07.417Z,21.27
2024-03-16T02:57:35.430Z,21.90
2024-03-16T03:00:08.512Z,22.83
2024-03-16T03:02:36.193Z,22.60
2024-03-16T03:05:05.080Z,22.40
2024-03-16T03:07:32.482Z,23.15
2024-03-16T03:10:00.209Z,24.10
2024-03-16T03:12:27.701Z,22.17
2024-03-16T03:14:55.247Z,20.00
2024-03-16T03:17:22.933Z,18.70
2024-03-16T03:19:50.954Z,16.70
2024-03-16T03:22:18.540Z,16.13
2024-03-16T03:24:46.199Z,16.87
2024-03-16T03:27:13.606Z,19.80
2024-03-16T03:29:40.993Z,20.07
2024-03-16T03:32:09.045Z,20.83
2024-03-16T03:34:37.041Z,21.00
2024-03-16T03:37:04.551Z,21.30
2024-03-16T03:39:32.254Z,22.30
2024-03-16T03:42:00.672Z,17.77
2024-03-16T03:44:38.054Z,17.90
2024-03-16T03:47:05.904Z,15.40
2024-03-16T03:49:41.611Z,15.20
2024-03-16T03:52:09.338Z,14.70
2024-03-16T03:54:36.750Z,18.13
2024-03-16T03:57:05.640Z,18.50
2024-03-16T04:02:00.639Z,18.50
2024-03-16T04:04:28.579Z,19.70
2024-03-16T04:06:55.882Z,18.23
2024-03-16T04:09:23.463Z,17.67
2024-03-16T04:11:51.308Z,16.03
2024-03-16T04:14:20.754Z,15.10
2024-03-16T04:19:17.605Z,14.20
2024-03-16T04:21:45.213Z,13.57
2024-03-16T04:24:12.535Z,13.27
2024-03-16T04:26:40.073Z,18.87
2024-03-16T04:29:07.347Z,27.63
2024-03-16T04:31:41.421Z,26.80
2024-03-16T04:34:11.421Z,19.60
2024-03-16T04:36:39.105Z,17.42
2024-03-16T04:39:06.734Z,19.27
2024-03-16T04:41:34.652Z,22.93
2024-03-16T04:44:02.447Z,21.37
2024-03-16T04:46:34.753Z,22.77
2024-03-16T04:49:03.208Z,23.70
2024-03-16T04:51:31.808Z,24.02
2024-03-16T04:53:59.380Z,21.27
2024-03-16T04:56:27.152Z,21.70
2024-03-16T04:58:55.213Z,20.60
2024-03-16T05:01:23.521Z,21.23
2024-03-16T05:03:51.899Z,20.90
2024-03-16T05:08:48.873Z,18.40
2024-03-16T05:11:17.469Z,16.67
2024-03-16T05:13:51.962Z,16.55
2024-03-16T05:16:20.515Z,17.03
2024-03-16T05:18:49.242Z,21.57
2024-03-16T05:21:16.979Z,21.50
2024-03-16T05:23:46.992Z,22.27
2024-03-16T05:28:43.850Z,18.62
2024-03-16T05:31:12.796Z,19.65
2024-03-16T05:33:43.285Z,20.17
2024-03-16T05:36:11.218Z,19.43
2024-03-16T05:38:38.944Z,22.57
2024-03-16T05:41:10.709Z,24.37
2024-03-16T05:43:44.710Z,24.23
2024-03-16T05:46:13.438Z,28.83
2024-03-16T05:48:40.964Z,24.73
2024-03-16T05:51:08.289Z,20.80
2024-03-16T05:53:36.775Z,20.77
2024-03-16T05:56:04.788Z,23.40
2024-03-16T05:58:34.407Z,29.27
2024-03-16T06:01:06.017Z,28.30
2024-03-16T06:03:34.243Z,25.07
2024-03-16T06:06:01.812Z,18.70
2024-03-16T06:08:29.969Z,19.40
2024-03-16T06:10:57.724Z,19.80
2024-03-16T06:13:25.582Z,19.13
2024-03-16T06:15:53.580Z,59.13
2024-03-16T06:18:22.561Z,18.25
2024-03-16T06:20:51.398Z,16.52
2024-03-16T06:23:19.531Z,17.25
2024-03-16T06:25:48.664Z,18.87
2024-03-16T06:28:18.684Z,18.02
2024-03-16T06:30:57.885Z,24.43
2024-03-16T06:33:28.938Z,24.20
2024-03-16T06:35:57.633Z,21.83
2024-03-16T06:38:25.351Z,18.90
2024-03-16T06:40:53.472Z,19.27
2024-03-16T06:43:21.190Z,12.53
2024-03-16T06:45:48.963Z,11.43
2024-03-16T06:48:16.985Z,11.57
2024-03-16T06:50:48.314Z,11.93
2024-03-16T06:53:16.442Z,10.43
2024-03-16T06:55:55.702Z,10.15
2024-03-16T06:58:24.587Z,14.87
2024-03-16T07:00:52.459Z,11.43
2024-03-16T07:03:20.475Z,17.83
2024-03-16T07:05:48.695Z,10.27
2024-03-16T07:08:18.754Z,10.63
2024-03-16T07:10:46.770Z,11.13
2024-03-16T07:13:14.869Z,12.20
2024-03-16T07:15:43.423Z,9.38
2024-03-16T07:18:11.510Z,9.47
2024-03-16T07:20:39.754Z,8.90
2024-03-16T07:23:07.872Z,8.30
2024-03-16T07:25:36.342Z,7.73
2024-03-16T07:28:06.423Z,8.53
2024-03-16T07:30:34.776Z,8.47
2024-03-16T07:33:04.844Z,8.65
2024-03-16T07:35:32.535Z,7.47
2024-03-16T07:38:00.847Z,21.00
2024-03-16T07:40:28.789Z,8.03
2024-03-16T07:42:57.121Z,7.30
2024-03-16T07:45:25.101Z,7.50
2024-03-16T07:47:56.338Z,7.00
2024-03-16T07:50:23.893Z,7.03
2024-03-16T07:52:52.353Z,6.13
2024-03-16T07:55:20.327Z,6.10
2024-03-16T07:57:49.447Z,5.70
2024-03-16T08:00:17.357Z,5.53
2024-03-16T08:02:45.382Z,5.30
2024-03-16T08:05:13.076Z,6.60
2024-03-16T08:07:41.465Z,6.40
2024-03-16T08:10:12.902Z,5.95
2024-03-16T08:12:41.022Z,5.27
2024-03-16T08:15:09.780Z,5.93
2024-03-16T08:17:37.564Z,7.30
2024-03-16T08:20:06.123Z,10.03
2024-03-16T08:22:34.131Z,5.93
2024-03-16T08:25:02.698Z,10.00
2024-03-16T08:27:34.318Z,5.45
2024-03-16T08:30:05.560Z,6.63
2024-03-16T08:32:33.137Z,6.22
2024-03-16T08:35:01.276Z,6.30
2024-03-16T08:37:29.588Z,4.70
2024-03-16T08:39:57.299Z,7.00
2024-03-16T08:42:24.953Z,6.17
2024-03-16T08:44:53.839Z,8.38
2024-03-16T08:47:23.200Z,5.80
2024-03-16T08:49:50.983Z,5.37
2024-03-16T08:52:19.881Z,4.83
2024-03-16T08:54:48.117Z,4.95
2024-03-16T08:57:15.662Z,5.10
2024-03-16T08:59:45.019Z,7.68
2024-03-16T09:02:13.208Z,4.80
2024-03-16T09:04:41.469Z,5.60
2024-03-16T09:07:09.643Z,34.38
2024-03-16T09:09:37.917Z,6.40
2024-03-16T09:12:06.441Z,5.93
2024-03-16T09:14:35.043Z,7.68
2024-03-16T09:17:03.077Z,6.87
2024-03-16T09:19:30.816Z,5.90
2024-03-16T09:21:59.830Z,5.65
2024-03-16T09:24:27.250Z,6.30
2024-03-16T09:26:54.961Z,6.10
2024-03-16T09:29:22.705Z,5.13
2024-03-16T09:31:51.171Z,5.00
2024-03-16T09:34:19.098Z,5.12
2024-03-16T09:36:47.023Z,4.83
2024-03-16T09:39:15.038Z,6.23
2024-03-16T09:41:42.416Z,5.00
